AAL2698 KDFW-KATL
Flight info
| Callsign | AAL2698 |
|---|---|
| Flight time | N/A |
| Altitude | 35000 |
| Route | TRYTN4 LOOSE MEMFS HUTCC KNSAW RUSSA GLAVN2 |
| Aircraft | B738/M-SDE2E3FGHIRWXY/LB1 |
Departure
| Time | 2026-05-06 19:22 |
|---|---|
| Airport | Dallas Fort Worth International Airport (KDFW) |
Arrival
| Time | N/A |
|---|---|
| Airport | Hartsfield Jackson Atlanta International Airport (KATL) |
| Time | Latitude | Longitude | Altitude | Speed | Heading |
|---|---|---|---|---|---|
| 2026-05-06 18:42 | 32.90039 | -97.03724 | 590 ft | 0 kts | 180° |
| 2026-05-06 19:09 | 32.90041 | -97.03724 | 590 ft | 1 kts | 180° |
| 2026-05-06 19:09 | 32.90055 | -97.03724 | 590 ft | 2 kts | 180° |
| 2026-05-06 19:09 | 32.90070 | -97.03724 | 590 ft | 1 kts | 179° |
| 2026-05-06 19:09 | 32.90080 | -97.03724 | 590 ft | 2 kts | 173° |
| 2026-05-06 19:10 | 32.90094 | -97.03730 | 590 ft | 2 kts | 145° |
| 2026-05-06 19:10 | 32.90104 | -97.03743 | 590 ft | 2 kts | 122° |
| 2026-05-06 19:10 | 32.90110 | -97.03759 | 590 ft | 2 kts | 99° |
| 2026-05-06 19:10 | 32.90111 | -97.03769 | 591 ft | 0 kts | 86° |
| 2026-05-06 19:11 | 32.90111 | -97.03750 | 590 ft | 5 kts | 89° |
| 2026-05-06 19:11 | 32.90111 | -97.03687 | 589 ft | 7 kts | 90° |
| 2026-05-06 19:11 | 32.90111 | -97.03626 | 588 ft | 5 kts | 90° |
| 2026-05-06 19:11 | 32.90111 | -97.03599 | 587 ft | 0 kts | 90° |
| 2026-05-06 19:13 | 32.90111 | -97.03596 | 587 ft | 1 kts | 89° |
| 2026-05-06 19:14 | 32.90111 | -97.03564 | 587 ft | 8 kts | 88° |
| 2026-05-06 19:14 | 32.90111 | -97.03469 | 585 ft | 12 kts | 92° |
| 2026-05-06 19:14 | 32.90111 | -97.03365 | 583 ft | 12 kts | 88° |
| 2026-05-06 19:14 | 32.90060 | -97.03315 | 581 ft | 13 kts | 179° |
| 2026-05-06 19:15 | 32.89924 | -97.03313 | 580 ft | 20 kts | 182° |
| 2026-05-06 19:15 | 32.89780 | -97.03317 | 579 ft | 20 kts | 180° |
| 2026-05-06 19:15 | 32.89642 | -97.03317 | 578 ft | 19 kts | 180° |
| 2026-05-06 19:15 | 32.89507 | -97.03318 | 576 ft | 19 kts | 181° |
| 2026-05-06 19:16 | 32.89373 | -97.03318 | 575 ft | 20 kts | 179° |
| 2026-05-06 19:16 | 32.89233 | -97.03317 | 575 ft | 19 kts | 180° |
| 2026-05-06 19:16 | 32.89103 | -97.03317 | 574 ft | 18 kts | 181° |
| 2026-05-06 19:16 | 32.88972 | -97.03320 | 572 ft | 18 kts | 181° |
| 2026-05-06 19:17 | 32.88849 | -97.03321 | 572 ft | 17 kts | 180° |
| 2026-05-06 19:17 | 32.88731 | -97.03322 | 572 ft | 16 kts | 180° |
| 2026-05-06 19:17 | 32.88628 | -97.03333 | 572 ft | 13 kts | 205° |
| 2026-05-06 19:17 | 32.88598 | -97.03391 | 572 ft | 8 kts | 270° |
| 2026-05-06 19:18 | 32.88600 | -97.03516 | 572 ft | 24 kts | 271° |
| 2026-05-06 19:18 | 32.88604 | -97.03744 | 569 ft | 27 kts | 269° |
| 2026-05-06 19:18 | 32.88609 | -97.03973 | 568 ft | 27 kts | 274° |
| 2026-05-06 19:18 | 32.88615 | -97.04180 | 568 ft | 21 kts | 264° |
| 2026-05-06 19:19 | 32.88602 | -97.04349 | 571 ft | 18 kts | 266° |
| 2026-05-06 19:19 | 32.88598 | -97.04492 | 574 ft | 16 kts | 271° |
| 2026-05-06 19:19 | 32.88565 | -97.04598 | 576 ft | 15 kts | 204° |
| 2026-05-06 19:19 | 32.88389 | -97.04614 | 572 ft | 31 kts | 182° |
| 2026-05-06 19:20 | 32.88171 | -97.04618 | 571 ft | 30 kts | 180° |
| 2026-05-06 19:20 | 32.87974 | -97.04620 | 568 ft | 21 kts | 186° |
| 2026-05-06 19:20 | 32.87910 | -97.04749 | 569 ft | 19 kts | 270° |
| 2026-05-06 19:20 | 32.87911 | -97.04919 | 569 ft | 21 kts | 270° |
| 2026-05-06 19:21 | 32.87944 | -97.05080 | 566 ft | 20 kts | 333° |
| 2026-05-06 19:21 | 32.88135 | -97.05094 | 569 ft | 50 kts | 0° |
| 2026-05-06 19:21 | 32.88710 | -97.05093 | 580 ft | 112 kts | 360° |
| 2026-05-06 19:21 | 32.89668 | -97.05086 | 607 ft | 162 kts | 0° |
| 2026-05-06 19:22 | 32.90770 | -97.05082 | 1349 ft | 152 kts | 1° |
| 2026-05-06 19:22 | 32.91797 | -97.05045 | 2042 ft | 151 kts | 3° |
| 2026-05-06 19:22 | 32.92897 | -97.04907 | 2339 ft | 167 kts | 13° |
| 2026-05-06 19:22 | 32.94061 | -97.04578 | 2663 ft | 180 kts | 12° |
| 2026-05-06 19:23 | 32.95365 | -97.04332 | 2990 ft | 196 kts | 7° |
| 2026-05-06 19:23 | 32.96777 | -97.04136 | 3366 ft | 210 kts | 7° |
| 2026-05-06 19:23 | 32.98286 | -97.03932 | 3651 ft | 229 kts | 7° |
| 2026-05-06 19:23 | 32.99929 | -97.03702 | 4034 ft | 244 kts | 7° |
| 2026-05-06 19:24 | 33.01659 | -97.03455 | 4420 ft | 259 kts | 6° |
| 2026-05-06 19:24 | 33.03483 | -97.03188 | 4887 ft | 269 kts | 8° |
| 2026-05-06 19:24 | 33.05310 | -97.02594 | 5486 ft | 276 kts | 23° |
| 2026-05-06 19:24 | 33.06836 | -97.01182 | 6054 ft | 284 kts | 51° |
| 2026-05-06 19:25 | 33.07759 | -96.99084 | 6619 ft | 291 kts | 73° |
| 2026-05-06 19:25 | 33.08131 | -96.96716 | 7216 ft | 295 kts | 85° |
| 2026-05-06 19:25 | 33.08284 | -96.94262 | 7820 ft | 300 kts | 91° |
| 2026-05-06 19:25 | 33.08112 | -96.91811 | 8421 ft | 303 kts | 100° |
| 2026-05-06 19:26 | 33.07755 | -96.89334 | 9074 ft | 307 kts | 102° |
| 2026-05-06 19:26 | 33.07364 | -96.86822 | 9713 ft | 311 kts | 103° |
| 2026-05-06 19:26 | 33.06973 | -96.84271 | 10276 ft | 319 kts | 103° |
| 2026-05-06 19:26 | 33.06404 | -96.81641 | 10616 ft | 333 kts | 112° |
| 2026-05-06 19:27 | 33.05579 | -96.79022 | 11014 ft | 345 kts | 116° |
| 2026-05-06 19:27 | 33.04623 | -96.76345 | 11340 ft | 360 kts | 118° |
| 2026-05-06 19:27 | 33.03601 | -96.73542 | 11654 ft | 376 kts | 118° |
| 2026-05-06 19:27 | 33.02562 | -96.70651 | 11958 ft | 391 kts | 118° |
| 2026-05-06 19:28 | 33.01505 | -96.67649 | 12526 ft | 397 kts | 117° |
| 2026-05-06 19:28 | 33.00441 | -96.64578 | 13107 ft | 403 kts | 118° |
| 2026-05-06 19:28 | 32.99376 | -96.61482 | 13705 ft | 408 kts | 118° |
| 2026-05-06 19:28 | 32.98301 | -96.58354 | 14292 ft | 413 kts | 118° |
| 2026-05-06 19:29 | 32.97212 | -96.55176 | 14878 ft | 418 kts | 118° |
| 2026-05-06 19:29 | 32.96106 | -96.51945 | 15457 ft | 424 kts | 118° |
| 2026-05-06 19:29 | 32.94985 | -96.48681 | 15972 ft | 431 kts | 118° |
| 2026-05-06 19:29 | 32.93851 | -96.45384 | 16576 ft | 435 kts | 118° |
| 2026-05-06 19:30 | 32.92697 | -96.42042 | 17083 ft | 441 kts | 119° |
| 2026-05-06 19:30 | 32.91549 | -96.38621 | 17670 ft | 448 kts | 116° |
| 2026-05-06 19:30 | 32.90719 | -96.35021 | 18214 ft | 462 kts | 104° |
| 2026-05-06 19:30 | 32.90629 | -96.31163 | 18638 ft | 479 kts | 86° |
| 2026-05-06 19:31 | 32.91455 | -96.27281 | 19143 ft | 486 kts | 72° |
| 2026-05-06 19:31 | 32.92619 | -96.23547 | 19631 ft | 492 kts | 69° |
| 2026-05-06 19:31 | 32.95180 | -96.15952 | 20676 ft | 500 kts | 68° |
| 2026-05-06 19:32 | 32.96494 | -96.12081 | 21167 ft | 505 kts | 68° |
| 2026-05-06 19:32 | 32.97804 | -96.08190 | 21619 ft | 509 kts | 68° |
| 2026-05-06 19:32 | 32.99108 | -96.04271 | 22091 ft | 513 kts | 69° |
| 2026-05-06 19:32 | 33.00412 | -96.00304 | 22562 ft | 516 kts | 69° |
| 2026-05-06 19:33 | 33.01710 | -95.96323 | 22930 ft | 522 kts | 68° |
| 2026-05-06 19:33 | 33.03006 | -95.92320 | 23390 ft | 525 kts | 69° |
| 2026-05-06 19:33 | 33.04329 | -95.88216 | 23841 ft | 528 kts | 69° |
| 2026-05-06 19:33 | 33.05647 | -95.84116 | 24258 ft | 533 kts | 69° |
| 2026-05-06 19:34 | 33.06962 | -95.80008 | 24648 ft | 538 kts | 69° |
| 2026-05-06 19:34 | 33.08298 | -95.75839 | 25079 ft | 541 kts | 69° |
| 2026-05-06 19:34 | 33.09640 | -95.71647 | 25489 ft | 545 kts | 69° |
| 2026-05-06 19:34 | 33.10984 | -95.67451 | 25944 ft | 547 kts | 69° |
| 2026-05-06 19:35 | 33.12343 | -95.63202 | 26287 ft | 552 kts | 69° |
| 2026-05-06 19:35 | 33.13715 | -95.58905 | 26689 ft | 555 kts | 69° |
| 2026-05-06 19:35 | 33.15082 | -95.54620 | 27231 ft | 554 kts | 69° |
| 2026-05-06 19:35 | 33.16435 | -95.50372 | 27782 ft | 552 kts | 70° |
| 2026-05-06 19:36 | 33.17797 | -95.46093 | 28284 ft | 552 kts | 70° |
| 2026-05-06 19:36 | 33.19147 | -95.41840 | 28760 ft | 552 kts | 70° |
| 2026-05-06 19:36 | 33.20506 | -95.37562 | 29204 ft | 552 kts | 70° |
| 2026-05-06 19:36 | 33.21869 | -95.33260 | 29681 ft | 552 kts | 70° |
| 2026-05-06 19:37 | 33.23223 | -95.28981 | 30075 ft | 553 kts | 70° |
| 2026-05-06 19:37 | 33.24562 | -95.24735 | 30516 ft | 552 kts | 70° |
| 2026-05-06 19:37 | 33.25919 | -95.20430 | 30988 ft | 550 kts | 70° |
| 2026-05-06 19:37 | 33.26809 | -95.17606 | 31329 ft | 548 kts | 70° |
| 2026-05-06 19:38 | 33.28591 | -95.11948 | 31848 ft | 548 kts | 70° |
| 2026-05-06 19:38 | 33.29922 | -95.07711 | 32254 ft | 547 kts | 71° |
| 2026-05-06 19:38 | 33.31256 | -95.03458 | 32654 ft | 546 kts | 70° |
| 2026-05-06 19:38 | 33.32590 | -94.99203 | 32992 ft | 546 kts | 70° |
| 2026-05-06 19:39 | 33.33917 | -94.94962 | 33356 ft | 546 kts | 70° |
| 2026-05-06 19:39 | 33.35234 | -94.90742 | 33685 ft | 547 kts | 70° |
| 2026-05-06 19:39 | 33.36560 | -94.86487 | 33988 ft | 549 kts | 71° |
| 2026-05-06 19:39 | 33.37887 | -94.82220 | 34243 ft | 551 kts | 70° |
| 2026-05-06 19:40 | 33.39213 | -94.77954 | 34612 ft | 550 kts | 70° |
| 2026-05-06 19:40 | 33.40554 | -94.73620 | 34918 ft | 551 kts | 70° |
| 2026-05-06 19:40 | 33.43227 | -94.64954 | 34981 ft | 553 kts | 69° |
| 2026-05-06 19:41 | 33.45882 | -94.56365 | 34981 ft | 550 kts | 70° |
| 2026-05-06 19:41 | 33.48569 | -94.47665 | 34981 ft | 554 kts | 69° |
| 2026-05-06 19:42 | 33.51238 | -94.39008 | 34981 ft | 552 kts | 69° |
| 2026-05-06 19:42 | 33.53889 | -94.30378 | 34983 ft | 555 kts | 71° |
| 2026-05-06 19:43 | 33.56519 | -94.21729 | 34984 ft | 556 kts | 70° |